Time;durP1;ratioP1;P1;durP2;ratioP2;P2;SDS_P1;SDS_P2;PMS_P1;PMS_P2;Temp;Humidity;BMP_temperature;BMP_pressure;BME280_temperature;BME280_humidity;BME280_pressure;Samples;Min_cycle;Max_cycle;Signal;HPM_P1;HPM_P2
2023/05/27 00:01:30;;;;;;;9.17;4.10;;;;;;;15.70;56.11;98801.72;5093044;28;20210;-77
2023/05/27 00:03:57;;;;;;;13.97;4.17;;;;;;;15.67;55.34;98799.50;5092602;28;20208;-77
2023/05/27 00:06:23;;;;;;;8.33;4.00;;;;;;;15.69;55.65;98797.41;5092571;28;20736;-77
2023/05/27 00:08:50;;;;;;;9.43;3.87;;;;;;;15.62;56.70;98796.72;5094301;28;20230;-77
2023/05/27 00:11:16;;;;;;;8.77;3.57;;;;;;;15.60;57.18;98796.94;5096482;28;20527;-77
2023/05/27 00:13:42;;;;;;;8.50;3.50;;;;;;;15.62;56.80;98799.38;5096522;28;20211;-77
2023/05/27 00:16:09;;;;;;;8.10;3.87;;;;;;;15.67;56.24;98796.81;5096208;28;20236;-77
2023/05/27 00:18:35;;;;;;;10.30;3.97;;;;;;;15.64;56.55;98802.63;5096489;28;20192;-77
2023/05/27 00:21:02;;;;;;;8.90;3.80;;;;;;;15.68;57.14;98801.13;5096604;28;20204;-77
2023/05/27 00:23:28;;;;;;;9.43;3.73;;;;;;;15.64;56.94;98806.16;5096055;28;20670;-77
2023/05/27 00:25:55;;;;;;;10.43;4.00;;;;;;;15.64;56.85;98806.16;5095865;28;20732;-77
2023/05/27 00:28:21;;;;;;;7.27;3.70;;;;;;;15.65;57.00;98801.63;5096272;28;20573;-77
2023/05/27 00:30:47;;;;;;;12.00;3.50;;;;;;;15.62;56.75;98800.22;5096162;28;20228;-77
2023/05/27 00:33:14;;;;;;;9.40;3.57;;;;;;;15.59;57.02;98808.72;5096088;28;20208;-77
2023/05/27 00:35:40;;;;;;;10.30;4.13;;;;;;;15.64;57.08;98806.16;5096030;28;20247;-77
2023/05/27 00:38:06;;;;;;;11.30;4.00;;;;;;;15.58;56.89;98799.03;5096022;28;20214;-77
2023/05/27 00:40:35;;;;;;;8.20;3.40;;;;;;;15.58;57.31;98791.00;5095726;28;20249;-77
2023/05/27 00:43:02;;;;;;;8.07;3.60;;;;;;;15.56;57.46;98794.97;5095944;28;20212;-77
2023/05/27 00:45:28;;;;;;;10.67;3.50;;;;;;;15.52;56.98;98794.59;5095802;28;20224;-77
2023/05/27 00:47:55;;;;;;;9.33;3.53;;;;;;;15.48;57.56;98798.81;5095702;28;20204;-77
2023/05/27 00:50:21;;;;;;;11.50;3.80;;;;;;;15.45;58.85;98799.25;5095605;28;20219;-77
2023/05/27 00:52:48;;;;;;;11.83;3.50;;;;;;;15.47;57.15;98804.41;5095321;28;20612;-77
2023/05/27 00:55:15;;;;;;;11.87;4.00;;;;;;;15.38;58.96;98795.88;5095539;28;20207;-77
2023/05/27 00:57:41;;;;;;;7.63;3.77;;;;;;;15.33;58.84;98792.25;5095260;28;20615;-77
2023/05/27 01:00:09;;;;;;;9.17;3.90;;;;;;;15.32;59.18;98787.91;5095510;28;20199;-77
2023/05/27 01:02:40;;;;;;;6.03;3.20;;;;;;;15.25;59.13;98788.00;5095439;28;20208;-77
2023/05/27 01:05:07;;;;;;;9.73;4.13;;;;;;;15.22;58.71;98790.34;5095402;28;20552;-77
2023/05/27 01:07:39;;;;;;;8.13;3.80;;;;;;;15.23;58.90;98792.78;5095357;28;20200;-77
2023/05/27 01:10:43;;;;;;;12.23;3.80;;;;;;;15.24;59.15;98788.25;5094888;28;20581;-77
2023/05/27 01:13:22;;;;;;;9.23;3.70;;;;;;;15.27;59.35;98777.88;5095296;28;20289;-77
2023/05/27 01:15:50;;;;;;;11.53;4.23;;;;;;;15.26;59.63;98780.81;5094939;28;20227;-77
2023/05/27 01:18:18;;;;;;;10.20;3.50;;;;;;;15.13;60.02;98775.66;5095148;28;20245;-77
2023/05/27 01:20:48;;;;;;;11.67;4.10;;;;;;;15.11;60.31;98781.22;5094264;28;20602;-77
2023/05/27 01:23:15;;;;;;;10.20;3.53;;;;;;;15.06;60.67;98777.63;5094977;28;20211;-77
2023/05/27 01:25:41;;;;;;;11.07;3.80;;;;;;;15.00;60.51;98775.84;5094962;28;20224;-77
2023/05/27 01:28:07;;;;;;;11.03;4.00;;;;;;;15.07;60.60;98779.25;5095220;28;20214;-77
2023/05/27 01:30:35;;;;;;;9.73;4.07;;;;;;;15.03;61.11;98780.75;5094861;28;20231;-77
2023/05/27 01:33:10;;;;;;;8.57;3.80;;;;;;;14.90;61.96;98770.25;5094578;28;20203;-77
2023/05/27 01:35:43;;;;;;;14.77;5.10;;;;;;;14.89;61.92;98769.44;5094765;28;20293;-77
2023/05/27 01:38:17;;;;;;;10.47;4.77;;;;;;;14.74;62.96;98769.03;5094870;28;20192;-77
2023/05/27 01:40:45;;;;;;;10.83;4.37;;;;;;;14.70;63.22;98767.06;5094445;28;20184;-77
2023/05/27 01:43:14;;;;;;;9.70;4.50;;;;;;;14.52;63.12;98761.75;5094386;28;20203;-77
2023/05/27 01:45:41;;;;;;;10.50;3.97;;;;;;;14.51;63.63;98763.59;5094871;28;20220;-77
2023/05/27 01:48:09;;;;;;;9.67;3.73;;;;;;;14.51;63.46;98760.91;5094313;28;20207;-76
2023/05/27 01:50:36;;;;;;;10.70;3.73;;;;;;;14.53;63.03;98764.19;5094467;28;20314;-76
2023/05/27 01:53:03;;;;;;;9.80;4.13;;;;;;;14.50;63.47;98764.66;5094454;28;20219;-76
2023/05/27 01:55:30;;;;;;;8.83;3.73;;;;;;;14.48;63.66;98755.22;5094070;28;20595;-76
2023/05/27 01:57:56;;;;;;;10.57;4.03;;;;;;;14.49;63.45;98751.50;5094595;28;20206;-76
2023/05/27 02:00:24;;;;;;;9.70;3.77;;;;;;;14.44;64.03;98751.34;5094310;28;20211;-76
2023/05/27 02:02:50;;;;;;;8.70;3.47;;;;;;;14.41;64.04;98749.13;5093989;28;20663;-76
2023/05/27 02:05:17;;;;;;;6.10;3.03;;;;;;;14.35;64.89;98748.19;5094567;28;20200;-76
2023/05/27 02:07:43;;;;;;;12.33;4.57;;;;;;;14.30;64.89;98756.03;5094381;28;20212;-76
2023/05/27 02:10:11;;;;;;;9.53;3.83;;;;;;;14.32;64.48;98750.47;5093841;28;20301;-76
2023/05/27 02:12:37;;;;;;;9.60;3.93;;;;;;;14.34;64.71;98743.84;5094367;28;20303;-76
2023/05/27 02:15:04;;;;;;;12.20;3.80;;;;;;;14.27;64.96;98745.81;5093983;28;20200;-76
2023/05/27 02:17:30;;;;;;;11.20;3.77;;;;;;;14.23;66.68;98735.78;5093703;28;20218;-76
2023/05/27 02:19:56;;;;;;;8.70;3.80;;;;;;;14.13;66.74;98733.63;5094027;28;20203;-76
2023/05/27 02:22:23;;;;;;;13.83;4.27;;;;;;;14.08;67.44;98738.84;5093685;28;20693;-76
2023/05/27 02:24:50;;;;;;;7.77;3.73;;;;;;;14.02;67.03;98741.59;5093965;28;20207;-76
2023/05/27 02:27:16;;;;;;;11.07;3.47;;;;;;;14.02;67.56;98745.06;5093846;28;20250;-76
2023/05/27 02:29:42;;;;;;;10.93;4.10;;;;;;;13.97;67.74;98744.91;5093768;28;20230;-76
2023/05/27 02:32:09;;;;;;;11.03;4.07;;;;;;;14.01;68.02;98745.28;5092898;28;20211;-76
2023/05/27 02:34:37;;;;;;;10.33;4.23;;;;;;;13.94;67.88;98741.88;5093846;28;20206;-76
2023/05/27 02:37:06;;;;;;;9.17;3.73;;;;;;;13.98;68.09;98741.19;5093666;28;20256;-76
2023/05/27 02:39:33;;;;;;;11.20;4.03;;;;;;;13.90;68.17;98744.19;5093700;28;20200;-76
2023/05/27 02:41:59;;;;;;;8.93;4.03;;;;;;;13.83;69.45;98739.97;5093626;28;20199;-76
2023/05/27 02:44:26;;;;;;;9.77;3.87;;;;;;;13.83;69.25;98740.75;5093818;28;20286;-76
2023/05/27 02:46:52;;;;;;;14.30;4.00;;;;;;;13.86;69.80;98737.66;5093575;28;20227;-76
2023/05/27 02:49:19;;;;;;;10.50;3.67;;;;;;;13.86;69.45;98731.47;5093403;28;20212;-76
2023/05/27 02:51:45;;;;;;;10.37;4.10;;;;;;;13.92;68.85;98738.59;5093289;28;20705;-76
2023/05/27 02:54:12;;;;;;;11.70;3.87;;;;;;;13.89;68.63;98733.72;5093566;28;20204;-76
2023/05/27 02:56:38;;;;;;;12.87;4.00;;;;;;;13.89;68.43;98742.53;5093474;28;20233;-76
2023/05/27 02:59:04;;;;;;;12.30;3.90;;;;;;;13.91;68.11;98732.44;5093738;28;20203;-76
2023/05/27 03:01:31;;;;;;;9.83;3.97;;;;;;;13.92;68.05;98731.41;5093188;28;20683;-76
2023/05/27 03:03:57;;;;;;;12.93;3.67;;;;;;;13.85;67.97;98730.69;5093481;28;20571;-77
2023/05/27 03:06:23;;;;;;;11.23;4.23;;;;;;;13.88;68.62;98735.56;5093299;28;20230;-76
2023/05/27 03:08:50;;;;;;;10.70;3.87;;;;;;;13.81;68.84;98736.69;5093273;28;20204;-76
2023/05/27 03:11:16;;;;;;;13.83;4.07;;;;;;;13.61;69.48;98744.91;5093258;28;20231;-77
2023/05/27 03:13:42;;;;;;;10.60;3.83;;;;;;;13.58;70.87;98739.19;5093264;28;20214;-76
2023/05/27 03:16:10;;;;;;;12.73;4.50;;;;;;;13.55;70.54;98736.97;5093040;28;20240;-76
2023/05/27 03:18:37;;;;;;;12.80;3.97;;;;;;;13.57;69.96;98735.69;5093484;28;20185;-77
2023/05/27 03:21:03;;;;;;;12.17;4.30;;;;;;;13.57;70.50;98730.34;5093145;28;20203;-76
2023/05/27 03:23:30;;;;;;;11.60;4.00;;;;;;;13.43;70.70;98734.19;5093210;28;20207;-76
2023/05/27 03:25:56;;;;;;;11.33;3.97;;;;;;;13.46;71.35;98739.09;5093141;28;20582;-77
2023/05/27 03:28:23;;;;;;;10.03;4.47;;;;;;;13.45;71.09;98742.81;5093135;28;20215;-77
2023/05/27 03:30:49;;;;;;;12.13;3.97;;;;;;;13.41;71.26;98738.97;5093123;28;20230;-77
2023/05/27 03:33:16;;;;;;;9.97;4.00;;;;;;;13.36;72.02;98744.13;5092961;28;20209;-76
2023/05/27 03:35:42;;;;;;;11.17;3.77;;;;;;;13.31;72.32;98752.00;5092368;28;20738;-76
2023/05/27 03:38:08;;;;;;;10.87;4.47;;;;;;;13.33;72.77;98746.41;5092749;28;20576;-77
2023/05/27 03:40:35;;;;;;;10.60;3.87;;;;;;;13.33;73.26;98741.91;5092712;28;20206;-76
2023/05/27 03:43:01;;;;;;;11.10;4.27;;;;;;;13.28;73.22;98741.75;5092591;28;20697;-76
2023/05/27 03:45:27;;;;;;;16.23;4.13;;;;;;;13.27;73.36;98742.78;5096754;28;20238;-76
2023/05/27 03:47:54;;;;;;;11.07;4.43;;;;;;;13.22;73.85;98742.63;5096820;28;20229;-76
2023/05/27 03:50:20;;;;;;;11.23;3.77;;;;;;;13.26;73.48;98741.16;5096752;28;20265;-76
2023/05/27 03:52:46;;;;;;;15.63;4.20;;;;;;;13.21;74.18;98740.97;5097001;28;20212;-76
2023/05/27 03:55:13;;;;;;;12.73;4.13;;;;;;;13.19;74.98;98737.72;5096344;28;20213;-76
2023/05/27 03:57:39;;;;;;;8.03;3.77;;;;;;;13.24;73.91;98743.22;5096352;28;20218;-77
2023/05/27 04:00:08;;;;;;;12.97;4.40;;;;;;;13.13;73.65;98737.78;5096629;28;20590;-77
2023/05/27 04:02:34;;;;;;;10.57;4.00;;;;;;;13.10;74.00;98743.53;5096273;28;20740;-76
2023/05/27 04:05:02;;;;;;;13.10;4.03;;;;;;;13.12;75.48;98736.16;5096482;28;20201;-76
2023/05/27 04:07:28;;;;;;;8.80;3.83;;;;;;;13.04;74.81;98737.25;5096149;28;20205;-76
2023/05/27 04:09:55;;;;;;;8.33;3.53;;;;;;;13.08;75.32;98743.78;5096413;28;20220;-77
2023/05/27 04:12:21;;;;;;;10.87;4.20;;;;;;;13.06;76.52;98740.50;5095967;28;20291;-76
2023/05/27 04:14:48;;;;;;;8.37;3.93;;;;;;;13.03;75.17;98740.91;5096246;28;20211;-76
2023/05/27 04:17:14;;;;;;;13.87;4.03;;;;;;;13.05;75.11;98748.72;5095950;28;20265;-76
2023/05/27 04:19:41;;;;;;;10.03;4.33;;;;;;;13.07;76.24;98747.47;5096281;28;20613;-76
2023/05/27 04:22:07;;;;;;;10.53;4.37;;;;;;;13.05;76.99;98746.03;5095821;28;20251;-76
2023/05/27 04:24:34;;;;;;;10.13;4.17;;;;;;;13.02;77.50;98749.16;5096152;28;20210;-76
2023/05/27 04:27:01;;;;;;;13.63;4.43;;;;;;;13.03;77.28;98758.81;5096049;28;20229;-76
2023/05/27 04:29:27;;;;;;;13.07;4.57;;;;;;;13.03;78.66;98748.94;5096152;28;20205;-76
2023/05/27 04:31:53;;;;;;;8.20;4.13;;;;;;;12.90;78.15;98757.03;5096246;28;20241;-77
2023/05/27 04:34:20;;;;;;;12.40;4.60;;;;;;;12.88;78.47;98751.06;5095757;28;20211;-76
2023/05/27 04:36:49;;;;;;;12.17;4.67;;;;;;;12.95;78.49;98746.53;5095550;28;20707;-76
2023/05/27 04:39:16;;;;;;;9.53;4.00;;;;;;;13.12;79.03;98749.50;5095542;28;20299;-76
2023/05/27 04:41:44;;;;;;;14.10;4.23;;;;;;;13.03;78.07;98754.25;5095796;28;20232;-76
2023/05/27 04:44:11;;;;;;;14.67;4.50;;;;;;;13.00;78.11;98749.38;5095467;28;20671;-77
2023/05/27 04:46:38;;;;;;;8.63;4.20;;;;;;;12.82;78.90;98756.47;5095303;28;20232;-77
2023/05/27 04:49:05;;;;;;;11.27;4.40;;;;;;;12.93;78.89;98748.56;5095601;28;20252;-76
2023/05/27 04:51:31;;;;;;;11.50;4.23;;;;;;;13.02;80.08;98743.84;5095482;28;20226;-76
2023/05/27 04:53:58;;;;;;;11.77;4.77;;;;;;;13.10;79.04;98744.38;5095522;28;20207;-76
2023/05/27 04:56:24;;;;;;;9.80;4.33;;;;;;;13.06;79.61;98742.38;5094370;28;20223;-76
2023/05/27 04:58:50;;;;;;;13.33;4.43;;;;;;;13.01;78.63;98744.84;5095365;28;20210;-76
2023/05/27 05:01:21;;;;;;;12.83;4.50;;;;;;;13.12;78.33;98734.28;5095228;28;20196;-76
2023/05/27 05:06:28;;;;;;;14.43;4.60;;;;;;;14.03;74.83;98732.53;5094710;28;20327;-76
2023/05/27 05:08:55;;;;;;;9.57;4.37;;;;;;;13.87;74.51;98735.78;5094981;28;20207;-76
2023/05/27 05:11:22;;;;;;;12.33;4.13;;;;;;;13.90;74.76;98740.69;5095213;28;20231;-76
2023/05/27 05:13:48;;;;;;;12.57;4.77;;;;;;;13.92;73.30;98739.41;5095262;28;20207;-76
2023/05/27 05:16:14;;;;;;;11.40;4.53;;;;;;;14.40;71.16;98734.94;5094983;28;20239;-76
2023/05/27 05:18:41;;;;;;;10.57;4.53;;;;;;;14.32;71.14;98740.59;5095172;28;20210;-76
2023/05/27 05:21:07;;;;;;;9.00;4.20;;;;;;;14.15;72.16;98749.44;5095112;28;20202;-76
2023/05/27 05:23:33;;;;;;;9.23;4.43;;;;;;;14.48;71.08;98739.97;5094861;28;20303;-76
2023/05/27 05:26:06;;;;;;;10.33;4.00;;;;;;;14.65;70.01;98751.66;5094521;28;20567;-77
2023/05/27 05:28:32;;;;;;;13.00;3.80;;;;;;;14.54;70.89;98743.59;5094696;28;20191;-77
2023/05/27 05:30:58;;;;;;;14.27;4.63;;;;;;;14.12;71.60;98744.53;5094785;28;20305;-76
2023/05/27 05:33:25;;;;;;;10.30;4.33;;;;;;;14.24;72.10;98746.25;5094745;28;20203;-76
2023/05/27 05:35:51;;;;;;;14.43;4.50;;;;;;;14.37;71.69;98751.44;5094648;28;20226;-76
2023/05/27 05:38:17;;;;;;;11.73;4.70;;;;;;;14.52;73.03;98746.50;5094321;28;20686;-76
2023/05/27 05:40:48;;;;;;;10.87;4.10;;;;;;;14.56;71.37;98761.06;5094241;28;20226;-76
2023/05/27 05:43:15;;;;;;;11.57;3.83;;;;;;;14.32;71.56;98747.81;5094814;28;20223;-77
2023/05/27 05:45:41;;;;;;;13.17;4.70;;;;;;;14.32;72.38;98753.16;5094311;28;20228;-76
2023/05/27 05:48:07;;;;;;;13.13;4.53;;;;;;;14.55;73.14;98755.91;5093995;28;20564;-76
2023/05/27 05:50:34;;;;;;;10.97;4.17;;;;;;;14.69;72.09;98755.50;5094367;28;20232;-77
2023/05/27 05:53:00;;;;;;;11.13;4.20;;;;;;;14.49;71.34;98752.31;5094437;28;20199;-77
2023/05/27 05:55:26;;;;;;;12.80;4.40;;;;;;;14.80;72.08;98751.25;5094303;28;20321;-76
2023/05/27 05:57:53;;;;;;;10.63;4.50;;;;;;;14.77;70.89;98744.50;5094307;28;20211;-76
2023/05/27 06:00:19;;;;;;;9.27;3.83;;;;;;;14.80;73.53;98749.41;5094157;28;20206;-76
2023/05/27 06:02:46;;;;;;;9.33;4.00;;;;;;;15.05;72.33;98754.56;5094086;28;20208;-77
2023/05/27 06:05:12;;;;;;;10.47;4.37;;;;;;;15.14;70.53;98753.16;5093825;28;20215;-77
2023/05/27 06:07:38;;;;;;;10.30;4.20;;;;;;;15.10;69.97;98747.47;5093937;28;20207;-76
2023/05/27 06:10:05;;;;;;;9.47;4.20;;;;;;;15.10;70.17;98749.34;5094449;28;20203;-77
2023/05/27 06:12:32;;;;;;;11.57;4.00;;;;;;;15.25;72.50;98747.81;5094247;28;20226;-76
2023/05/27 06:14:58;;;;;;;12.50;4.43;;;;;;;15.13;70.58;98749.69;5093959;28;20287;-76
2023/05/27 06:17:24;;;;;;;13.07;4.77;;;;;;;15.21;70.41;98748.53;5093738;28;20246;-76
2023/05/27 06:19:51;;;;;;;10.20;4.30;;;;;;;14.96;68.77;98754.06;5093698;28;20237;-76
2023/05/27 06:22:17;;;;;;;13.40;4.50;;;;;;;15.21;71.08;98749.38;5093809;28;20659;-76
2023/05/27 06:24:43;;;;;;;9.93;4.23;;;;;;;15.34;69.49;98749.16;5093595;28;20599;-76
2023/05/27 06:27:10;;;;;;;12.43;4.30;;;;;;;15.01;69.29;98745.38;5093720;28;20223;-77
2023/05/27 06:29:36;;;;;;;9.93;4.17;;;;;;;15.42;68.78;98737.28;5093841;28;20291;-77
2023/05/27 06:32:03;;;;;;;10.20;4.40;;;;;;;15.41;69.53;98741.81;5093761;28;20590;-77
2023/05/27 06:34:29;;;;;;;10.20;4.10;;;;;;;15.30;69.08;98739.94;5093784;28;20208;-77
2023/05/27 06:36:55;;;;;;;12.60;4.03;;;;;;;15.51;69.50;98742.03;5093590;28;20220;-76
2023/05/27 06:39:22;;;;;;;11.07;4.40;;;;;;;15.71;68.24;98745.19;5093483;28;20200;-76
2023/05/27 06:41:48;;;;;;;10.53;4.50;;;;;;;15.68;64.85;98739.47;5093625;28;20235;-77
2023/05/27 06:44:15;;;;;;;11.07;4.40;;;;;;;15.73;68.21;98748.44;5093510;28;20207;-77
2023/05/27 06:46:41;;;;;;;10.27;4.10;;;;;;;15.44;65.43;98738.69;5093334;28;20310;-76
2023/05/27 06:49:08;;;;;;;12.30;4.53;;;;;;;15.85;66.83;98735.03;5093578;28;20203;-76
2023/05/27 06:51:35;;;;;;;11.93;4.57;;;;;;;15.73;69.23;98743.09;5093111;28;20594;-77
2023/05/27 06:54:01;;;;;;;10.53;5.10;;;;;;;15.89;68.05;98741.53;5093173;28;20207;-77
2023/05/27 06:56:27;;;;;;;12.17;4.43;;;;;;;15.94;68.39;98739.78;5093342;28;20611;-76
2023/05/27 06:58:54;;;;;;;11.90;4.07;;;;;;;16.22;69.32;98742.53;5093426;28;20227;-76
2023/05/27 07:01:20;;;;;;;12.67;4.17;;;;;;;16.17;67.38;98737.06;5093825;28;20206;-77
2023/05/27 07:03:47;;;;;;;10.67;4.80;;;;;;;16.14;68.05;98734.84;5093116;28;20526;-76
2023/05/27 07:06:14;;;;;;;12.43;4.53;;;;;;;16.40;65.34;98742.38;5093325;28;20223;-77
2023/05/27 07:08:41;;;;;;;12.33;4.70;;;;;;;16.41;65.87;98740.50;5093321;28;20250;-76
2023/05/27 07:11:07;;;;;;;10.57;4.40;;;;;;;16.53;65.62;98741.25;5093025;28;20220;-76
2023/05/27 07:13:33;;;;;;;10.33;4.07;;;;;;;16.41;65.24;98744.00;5093385;28;20214;-76
2023/05/27 07:16:00;;;;;;;13.37;4.83;;;;;;;16.50;66.59;98736.38;5093188;28;20242;-77
2023/05/27 07:18:26;;;;;;;11.10;4.17;;;;;;;16.75;63.88;98743.03;5094377;28;20199;-76
2023/05/27 07:20:53;;;;;;;12.60;4.43;;;;;;;16.78;66.21;98745.22;5097856;28;20204;-76
2023/05/27 07:23:19;;;;;;;10.03;4.30;;;;;;;16.59;62.92;98741.13;5097641;28;20243;-77
2023/05/27 07:25:45;;;;;;;8.90;4.23;;;;;;;16.56;64.62;98744.28;5097684;28;20226;-76
2023/05/27 07:28:12;;;;;;;12.57;4.40;;;;;;;16.58;66.15;98741.34;5097032;28;20563;-76
2023/05/27 07:30:38;;;;;;;11.80;4.10;;;;;;;16.76;63.74;98741.97;5097371;28;20207;-76
2023/05/27 07:33:05;;;;;;;11.87;4.37;;;;;;;16.62;64.09;98746.03;5097138;28;20213;-77
2023/05/27 07:35:31;;;;;;;9.53;4.60;;;;;;;16.91;65.78;98736.88;5097252;28;20259;-76
2023/05/27 07:37:57;;;;;;;10.40;4.60;;;;;;;17.28;62.30;98740.69;5097819;28;20200;-76
2023/05/27 07:40:24;;;;;;;12.97;4.43;;;;;;;17.12;64.80;98738.00;5097063;28;20619;-76
2023/05/27 07:42:50;;;;;;;7.93;3.73;;;;;;;17.39;60.97;98737.16;5096726;28;20253;-77
2023/05/27 07:45:17;;;;;;;11.63;4.60;;;;;;;17.46;63.28;98737.00;5096611;28;20208;-76
2023/05/27 07:47:43;;;;;;;10.77;4.23;;;;;;;17.39;62.36;98736.31;5096855;28;20203;-76
2023/05/27 07:50:10;;;;;;;11.80;4.73;;;;;;;17.39;62.87;98731.78;5096922;28;20207;-76
2023/05/27 07:52:36;;;;;;;12.57;4.83;;;;;;;17.45;62.61;98722.72;5096814;28;20231;-76
2023/05/27 07:55:03;;;;;;;11.77;4.20;;;;;;;17.64;63.64;98725.97;5096830;28;20290;-77
2023/05/27 07:57:29;;;;;;;11.93;4.60;;;;;;;17.77;61.80;98715.66;5096672;28;20204;-76
2023/05/27 07:59:55;;;;;;;10.90;4.13;;;;;;;17.41;61.23;98726.16;5097163;28;20203;-76
2023/05/27 08:02:22;;;;;;;9.07;4.77;;;;;;;17.77;60.15;98723.72;5096734;28;20210;-76
2023/05/27 08:04:49;;;;;;;12.47;4.23;;;;;;;17.55;61.13;98722.88;5096732;28;20212;-76
2023/05/27 08:07:15;;;;;;;11.40;4.10;;;;;;;17.92;59.86;98709.66;5096483;28;20636;-77
2023/05/27 08:09:42;;;;;;;10.83;4.80;;;;;;;17.99;61.30;98715.66;5096471;28;20204;-77
2023/05/27 08:12:08;;;;;;;9.50;4.30;;;;;;;18.07;62.19;98710.66;5096439;28;20224;-76
2023/05/27 08:14:39;;;;;;;10.53;4.27;;;;;;;18.17;58.21;98707.28;5095917;28;20666;-77
2023/05/27 08:17:05;;;;;;;10.80;4.50;;;;;;;18.12;59.10;98708.03;5095906;28;20730;-77
2023/05/27 08:19:32;;;;;;;10.27;4.00;;;;;;;18.17;57.74;98697.31;5096431;28;20203;-77
2023/05/27 08:21:59;;;;;;;9.67;4.17;;;;;;;17.83;58.16;98700.41;5096550;28;20200;-77
2023/05/27 08:24:27;;;;;;;10.00;4.47;;;;;;;18.19;58.39;98699.78;5096473;28;20204;-76
2023/05/27 08:26:53;;;;;;;12.53;4.07;;;;;;;18.28;58.52;98704.44;5095722;28;20231;-77
2023/05/27 08:29:20;;;;;;;11.53;4.50;;;;;;;18.17;57.03;98694.63;5095934;28;20670;-77
2023/05/27 08:31:46;;;;;;;13.20;4.20;;;;;;;18.42;57.35;98699.53;5096268;28;20220;-77
2023/05/27 08:34:13;;;;;;;10.97;4.87;;;;;;;18.62;59.94;98692.47;5096136;28;20200;-77
2023/05/27 08:36:39;;;;;;;8.97;4.57;;;;;;;18.70;57.67;98686.63;5095926;28;20594;-77
2023/05/27 08:39:06;;;;;;;10.33;4.30;;;;;;;18.81;57.17;98682.94;5096035;28;20204;-77
2023/05/27 08:41:32;;;;;;;9.00;4.60;;;;;;;18.61;57.34;98682.75;5095994;28;20196;-77
2023/05/27 08:44:00;;;;;;;8.57;4.43;;;;;;;18.77;58.08;98679.13;5095751;28;20203;-77
2023/05/27 08:46:27;;;;;;;9.33;4.07;;;;;;;19.02;57.73;98673.97;5096234;28;20224;-77
2023/05/27 08:48:55;;;;;;;10.93;4.57;;;;;;;19.21;54.87;98674.34;5095852;28;20574;-77
2023/05/27 08:51:22;;;;;;;11.13;4.67;;;;;;;19.36;55.59;98674.50;5095789;28;20215;-77
2023/05/27 08:53:49;;;;;;;8.67;4.70;;;;;;;18.61;55.19;98673.84;5096005;28;20227;-77
2023/05/27 08:56:18;;;;;;;8.40;4.30;;;;;;;19.06;57.86;98671.56;5095147;28;20254;-77
2023/05/27 08:58:44;;;;;;;8.37;4.50;;;;;;;19.50;58.30;98673.75;5095239;28;20544;-77
2023/05/27 09:01:12;;;;;;;11.43;4.67;;;;;;;19.59;53.57;98671.41;5095612;28;20206;-77
2023/05/27 09:03:38;;;;;;;15.27;4.53;;;;;;;19.58;53.76;98663.56;5096046;28;20200;-77
2023/05/27 09:06:05;;;;;;;8.60;4.17;;;;;;;19.89;54.01;98665.34;5095369;28;20223;-77
2023/05/27 09:08:32;;;;;;;10.30;4.50;;;;;;;20.11;53.67;98671.41;5094942;28;20282;-77
2023/05/27 09:11:35;;;;;;;7.03;4.20;;;;;;;20.10;51.33;98658.97;5095409;28;20281;-76
2023/05/27 09:14:01;;;;;;;10.20;4.50;;;;;;;20.27;51.61;98665.78;5093271;28;20187;-77
2023/05/27 09:16:28;;;;;;;8.20;4.40;;;;;;;20.07;55.23;98665.66;5092767;28;20236;-77
2023/05/27 09:18:54;;;;;;;9.13;4.50;;;;;;;20.18;54.11;98656.56;5092980;28;20207;-77
2023/05/27 09:21:20;;;;;;;9.87;4.80;;;;;;;20.20;52.00;98656.28;5093138;28;20200;-77
2023/05/27 09:23:47;;;;;;;7.30;4.20;;;;;;;20.47;52.67;98659.59;5093050;28;20211;-77
2023/05/27 09:26:14;;;;;;;11.20;4.63;;;;;;;20.56;51.98;98656.09;5093044;28;20461;-77
2023/05/27 09:28:40;;;;;;;9.17;4.53;;;;;;;20.25;51.10;98651.72;5094538;28;20203;-77
2023/05/27 09:31:08;;;;;;;7.83;4.23;;;;;;;20.21;51.85;98655.22;5094533;28;20675;-77
2023/05/27 09:33:38;;;;;;;10.47;4.40;;;;;;;20.38;53.24;98648.50;5095067;28;20211;-77
2023/05/27 09:36:08;;;;;;;7.77;4.33;;;;;;;20.51;50.78;98647.19;5094955;28;20227;-78
2023/05/27 09:38:36;;;;;;;6.80;4.20;;;;;;;20.95;51.84;98635.63;5094618;28;20196;-77
2023/05/27 09:41:04;;;;;;;7.37;4.43;;;;;;;21.08;50.29;98645.06;5094791;28;20200;-77
2023/05/27 09:43:31;;;;;;;10.47;5.23;;;;;;;21.27;49.87;98630.72;5094867;28;20204;-77
2023/05/27 09:46:10;;;;;;;8.53;4.97;;;;;;;21.40;49.79;98626.63;5094545;28;20227;-77
2023/05/27 09:48:37;;;;;;;8.33;4.47;;;;;;;21.33;49.71;98628.78;5076749;28;20196;-77
2023/05/27 09:51:04;;;;;;;10.80;5.10;;;;;;;21.25;48.50;98635.56;5094404;28;20212;-77
2023/05/27 09:53:31;;;;;;;7.50;4.37;;;;;;;21.26;48.70;98629.06;5094487;28;20203;-77
2023/05/27 09:55:58;;;;;;;5.77;4.07;;;;;;;21.16;49.49;98631.81;5095378;28;20285;-77
2023/05/27 09:58:26;;;;;;;8.50;4.60;;;;;;;20.24;50.65;98627.69;5096207;28;20684;-78
2023/05/27 10:00:53;;;;;;;11.07;5.13;;;;;;;20.98;53.70;98631.56;5094657;28;20204;-77
2023/05/27 10:03:24;;;;;;;10.87;4.77;;;;;;;21.37;50.65;98628.00;5094686;28;20207;-77
2023/05/27 10:05:52;;;;;;;11.40;5.03;;;;;;;21.37;50.07;98625.28;5094455;28;20228;-77
2023/05/27 10:08:19;;;;;;;8.57;5.00;;;;;;;21.66;47.67;98620.84;5094646;28;20210;-77
2023/05/27 10:10:46;;;;;;;8.73;4.40;;;;;;;21.37;50.01;98619.06;5094259;28;20226;-77
2023/05/27 10:13:16;;;;;;;11.30;4.97;;;;;;;21.49;48.90;98609.56;5093967;28;20224;-77
2023/05/27 10:15:48;;;;;;;8.60;4.70;;;;;;;21.48;49.25;98609.84;5093911;28;20234;-77
2023/05/27 10:18:27;;;;;;;7.47;4.57;;;;;;;21.93;49.60;98607.00;5094220;28;20224;-77
2023/05/27 10:20:54;;;;;;;7.40;4.67;;;;;;;21.80;47.77;98613.00;5094279;28;20227;-77
2023/05/27 10:23:31;;;;;;;9.27;4.85;;;;;;;22.08;46.43;98615.03;5093957;28;20244;-77
2023/05/27 10:26:03;;;;;;;9.90;5.00;;;;;;;22.17;47.95;98605.22;5093887;28;20224;-77
2023/05/27 10:28:32;;;;;;;9.02;4.57;;;;;;;21.69;47.81;98606.81;5094113;28;20189;-77
2023/05/27 10:31:18;;;;;;;6.70;4.63;;;;;;;21.74;47.01;98603.25;5094239;28;20590;-77
2023/05/27 10:33:48;;;;;;;8.57;4.32;;;;;;;21.87;49.19;98600.78;5093469;28;20663;-77
2023/05/27 10:36:22;;;;;;;10.68;5.20;;;;;;;21.64;49.34;98608.69;5093539;28;20736;-77
2023/05/27 10:39:02;;;;;;;10.90;4.63;;;;;;;21.43;46.86;98599.81;5094214;28;20639;-77
2023/05/27 10:41:39;;;;;;;7.60;4.60;;;;;;;21.29;46.78;98587.97;5094044;28;20223;-77
2023/05/27 10:44:05;;;;;;;8.00;4.57;;;;;;;21.77;46.85;98590.00;5075955;28;20194;-77
2023/05/27 10:46:43;;;;;;;9.63;4.03;;;;;;;22.34;47.15;98584.78;5093366;28;20706;-77
2023/05/27 10:49:35;;;;;;;7.32;4.45;;;;;;;22.40;44.82;98589.09;5094214;28;20192;-77
2023/05/27 10:52:10;;;;;;;9.93;5.30;;;;;;;22.45;47.27;98585.53;5084505;28;20219;-77
2023/05/27 10:54:37;;;;;;;7.70;5.03;;;;;;;22.33;45.23;98583.19;5092734;28;20183;-77
2023/05/27 10:57:04;;;;;;;10.60;5.03;;;;;;;22.27;46.66;98576.19;5093402;28;20235;-77
2023/05/27 10:59:55;;;;;;;5.88;4.32;;;;;;;22.76;43.84;98576.91;5093504;28;20200;-77
2023/05/27 11:02:22;;;;;;;8.68;5.13;;;;;;;22.80;43.10;98575.22;5093719;28;20191;-77
2023/05/27 11:04:50;;;;;;;8.30;4.70;;;;;;;22.72;44.12;98569.63;5093530;28;20203;-77
2023/05/27 11:07:20;;;;;;;8.07;4.65;;;;;;;22.43;43.53;98568.75;5093388;28;20230;-77
2023/05/27 11:09:56;;;;;;;9.93;4.88;;;;;;;22.63;44.42;98565.91;5093815;28;20206;-77
2023/05/27 11:12:24;;;;;;;9.35;4.78;;;;;;;22.49;44.17;98571.19;5093303;28;20550;-77
2023/05/27 11:14:55;;;;;;;7.35;4.90;;;;;;;22.18;45.25;98561.63;5093467;28;20243;-77
2023/05/27 11:17:22;;;;;;;7.97;4.22;;;;;;;22.41;46.43;98563.63;5093125;28;20240;-77
2023/05/27 11:19:49;;;;;;;10.13;4.50;;;;;;;22.41;42.84;98570.91;5093277;28;20211;-77
2023/05/27 11:22:17;;;;;;;7.28;4.60;;;;;;;22.18;44.56;98552.66;5093392;28;20204;-77
2023/05/27 11:24:56;;;;;;;8.43;4.70;;;;;;;22.32;46.64;98549.06;5092887;28;20553;-77
2023/05/27 11:27:22;;;;;;;6.95;4.43;;;;;;;22.36;44.92;98557.41;5093127;28;20227;-77
2023/05/27 11:29:53;;;;;;;6.72;3.78;;;;;;;22.65;44.33;98561.03;5093247;28;20212;-77
2023/05/27 11:32:20;;;;;;;9.07;4.35;;;;;;;22.79;44.75;98554.66;5093024;28;20231;-77
2023/05/27 11:34:47;;;;;;;7.30;4.53;;;;;;;22.93;43.43;98552.88;5093339;28;20204;-77